PWSweather.com
Personal Weather Stations
Station Observations
MODAVIPC
SerramonacescaIT 65025

SerramonacescaIT 65025

Lat: 42.144601, Lon: 14.052911

Elevation: 1003.94

Station Type: WS1080

Latest ConditionsUpdated 12:13:52 PM GMT+01:01 Saturday, Jul 21, 2018
Currently Today's Max Today's Min Today's Average
Temperature 97.0°F36.1°C 102.0°F38.9°C 73.2°F22.9°C 84.7°F29.3°C
Dew Point 60.4°F15.8°C 63.7°F17.6°C 46.1°F7.8°C 53.7°F12.1°C
Winds 1.3 mph SE2.1 kmh SE 4.2 mph -6.8 kmh - - 1.5 mph 2.4 kmh
Wind Gusts 2.3 mph3.7 kmh 5.5 mph8.9 kmh - -
Humidity 30% 55% 22% 36%
Pressure 29.91 in1012.9 mb 29.93 in1013.5 mb 29.90 in1012.5 mb -
Hour Temp Dew Point Humidity Winds Wind Gusts Pressure Precip Precip Rate Daily Precip Total
12:13 PM 97.0°F36.1°C 60.4°F15.8°C 30% 1.3 mph SE2.1 kmh SE 2.3 mph3.7 kmh 29.91 in1012.9 mb 0.00 in0.0 mm 0.00 in0.0 mm 0.00 in0.0 mm
12:03 PM 95.2°F35.1°C 59.7°F15.4°C 31% Calm Calm -- 29.91 in1012.9 mb 0.00 in0.0 mm 0.00 in0.0 mm 0.00 in0.0 mm
11:53 AM 96.8°F36.0°C 60.2°F15.7°C 30% 1.3 mph NE2.1 kmh NE 1.9 mph3.1 kmh 29.91 in1012.9 mb 0.00 in0.0 mm 0.00 in0.0 mm 0.00 in0.0 mm
11:43 AM 95.4°F35.2°C 59.0°F15.0°C 30% 1.9 mph NE3.1 kmh NE 2.3 mph3.7 kmh 29.93 in1013.5 mb 0.00 in0.0 mm 0.00 in0.0 mm 0.00 in0.0 mm
11:33 AM 94.8°F34.9°C 63.7°F17.6°C 36% 0.4 mph 0.6 kmh 0.9 mph1.4 kmh 29.91 in1012.9 mb 0.00 in0.0 mm 0.00 in0.0 mm 0.00 in0.0 mm
11:23 AM 90.3°F32.4°C 62.7°F17.1°C 40% 0.4 mph 0.6 kmh 0.9 mph1.4 kmh 29.90 in1012.5 mb 0.00 in0.0 mm 0.00 in0.0 mm 0.00 in0.0 mm
11:13 AM 91.8°F33.2°C 58.5°F14.7°C 33% 0.9 mph NE1.4 kmh NE 1.3 mph2.1 kmh 29.91 in1012.9 mb 0.00 in0.0 mm 0.00 in0.0 mm 0.00 in0.0 mm
11:03 AM 93.0°F33.9°C 58.8°F14.9°C 32% 0.4 mph SW0.6 kmh SW 0.9 mph1.4 kmh 29.93 in1013.5 mb 0.00 in0.0 mm 0.00 in0.0 mm 0.00 in0.0 mm
10:53 AM 94.3°F34.6°C 59.0°F15.0°C 31% 0.9 mph NE1.4 kmh NE 1.3 mph2.1 kmh 29.92 in1013.2 mb 0.00 in0.0 mm 0.00 in0.0 mm 0.00 in0.0 mm
10:43 AM 94.6°F34.8°C 59.3°F15.2°C 31% 0.9 mph NE1.4 kmh NE 1.9 mph3.1 kmh 29.91 in1012.9 mb 0.00 in0.0 mm 0.00 in0.0 mm 0.00 in0.0 mm
10:33 AM 90.9°F32.7°C 57.7°F14.3°C 33% 0.9 mph SW1.4 kmh SW 1.3 mph2.1 kmh 29.92 in1013.2 mb 0.00 in0.0 mm 0.00 in0.0 mm 0.00 in0.0 mm
10:23 AM 90.5°F32.5°C 57.4°F14.1°C 33% Calm Calm 0.4 mph0.6 kmh 29.92 in1013.2 mb 0.00 in0.0 mm 0.00 in0.0 mm 0.00 in0.0 mm
10:13 AM 90.0°F32.2°C 58.6°F14.8°C 35% 1.9 mph NE3.1 kmh NE 2.3 mph3.7 kmh 29.92 in1013.2 mb 0.00 in0.0 mm 0.00 in0.0 mm 0.00 in0.0 mm
10:03 AM 92.7°F33.7°C 52.7°F11.5°C 26% 1.9 mph NE3.1 kmh NE 2.7 mph4.3 kmh 29.91 in1012.9 mb 0.00 in0.0 mm 0.00 in0.0 mm 0.00 in0.0 mm
09:53 AM 92.3°F33.5°C 54.4°F12.4°C 28% 1.3 mph NE2.1 kmh NE 2.3 mph3.7 kmh 29.92 in1013.2 mb 0.00 in0.0 mm 0.00 in0.0 mm 0.00 in0.0 mm
09:43 AM 93.7°F34.3°C 52.6°F11.4°C 25% Calm Calm 0.9 mph1.4 kmh 29.92 in1013.2 mb 0.00 in0.0 mm 0.00 in0.0 mm 0.00 in0.0 mm
09:33 AM 94.8°F34.9°C 52.3°F11.3°C 24% 1.3 mph E2.1 kmh E 2.3 mph3.7 kmh 29.92 in1013.2 mb 0.00 in0.0 mm 0.00 in0.0 mm 0.00 in0.0 mm
09:23 AM 97.7°F36.5°C 55.9°F13.3°C 25% 0.9 mph NE1.4 kmh NE 1.9 mph3.1 kmh 29.92 in1013.2 mb 0.00 in0.0 mm 0.00 in0.0 mm 0.00 in0.0 mm
09:13 AM 97.7°F36.5°C 54.8°F12.7°C 24% 0.4 mph 0.6 kmh 0.9 mph1.4 kmh 29.91 in1012.9 mb 0.00 in0.0 mm 0.00 in0.0 mm 0.00 in0.0 mm
09:03 AM 96.6°F35.9°C 59.1°F15.1°C 29% 0.9 mph NE1.4 kmh NE 1.3 mph2.1 kmh 29.91 in1012.9 mb 0.00 in0.0 mm 0.00 in0.0 mm 0.00 in0.0 mm
08:53 AM 102.0°F38.9°C 55.9°F13.3°C 22% 1.3 mph 2.1 kmh 1.9 mph3.1 kmh 29.92 in1013.2 mb 0.00 in0.0 mm 0.00 in0.0 mm 0.00 in0.0 mm
08:43 AM 100.0°F37.8°C 55.5°F13.1°C 23% Calm Calm 0.4 mph0.6 kmh 29.93 in1013.5 mb 0.00 in0.0 mm 0.00 in0.0 mm 0.00 in0.0 mm
08:33 AM 99.9°F37.7°C 54.2°F12.3°C 22% 0.4 mph W0.6 kmh W 0.9 mph1.4 kmh 29.92 in1013.2 mb 0.00 in0.0 mm 0.00 in0.0 mm 0.00 in0.0 mm
08:23 AM 99.1°F37.3°C 56.0°F13.3°C 24% 0.4 mph SW0.6 kmh SW 0.9 mph1.4 kmh 29.92 in1013.2 mb 0.00 in0.0 mm 0.00 in0.0 mm 0.00 in0.0 mm
08:13 AM 99.9°F37.7°C 57.7°F14.3°C 25% 1.3 mph W2.1 kmh W 1.9 mph3.1 kmh 29.91 in1012.9 mb 0.00 in0.0 mm 0.00 in0.0 mm 0.00 in0.0 mm
08:03 AM 100.2°F37.9°C 54.5°F12.5°C 22% 0.4 mph S0.6 kmh S 0.9 mph1.4 kmh 29.92 in1013.2 mb 0.00 in0.0 mm 0.00 in0.0 mm 0.00 in0.0 mm
07:53 AM 98.1°F36.7°C 60.3°F15.7°C 29% Calm Calm 0.4 mph0.6 kmh 29.92 in1013.2 mb 0.00 in0.0 mm 0.00 in0.0 mm 0.00 in0.0 mm
07:43 AM 92.5°F33.6°C 57.4°F14.1°C 31% 0.4 mph W0.6 kmh W 0.9 mph1.4 kmh 29.91 in1012.9 mb 0.00 in0.0 mm 0.00 in0.0 mm 0.00 in0.0 mm
07:33 AM 91.6°F33.1°C 58.4°F14.7°C 33% 1.3 mph 2.1 kmh 2.3 mph3.7 kmh 29.91 in1012.9 mb 0.00 in0.0 mm 0.00 in0.0 mm 0.00 in0.0 mm
07:23 AM 90.9°F32.7°C 56.9°F13.8°C 32% 0.4 mph S0.6 kmh S 1.3 mph2.1 kmh 29.92 in1013.2 mb 0.00 in0.0 mm 0.00 in0.0 mm 0.00 in0.0 mm
07:13 AM 91.0°F32.8°C 57.0°F13.9°C 32% 0.9 mph E1.4 kmh E 1.3 mph2.1 kmh 29.91 in1012.9 mb 0.00 in0.0 mm 0.00 in0.0 mm 0.00 in0.0 mm
07:03 AM 88.9°F31.6°C 58.4°F14.7°C 36% Calm Calm 0.4 mph0.6 kmh 29.91 in1012.9 mb 0.00 in0.0 mm 0.00 in0.0 mm 0.00 in0.0 mm
06:53 AM 86.5°F30.3°C 56.4°F13.6°C 36% 0.4 mph SW0.6 kmh SW 1.3 mph2.1 kmh 29.91 in1012.9 mb 0.00 in0.0 mm 0.00 in0.0 mm 0.00 in0.0 mm
06:43 AM 86.4°F30.2°C 53.8°F12.1°C 33% 2.3 mph S3.7 kmh S 3.2 mph5.1 kmh 29.90 in1012.5 mb 0.00 in0.0 mm 0.00 in0.0 mm 0.00 in0.0 mm
06:33 AM 88.0°F31.1°C 50.8°F10.4°C 28% 1.9 mph S3.1 kmh S 3.2 mph5.1 kmh 29.91 in1012.9 mb 0.00 in0.0 mm 0.00 in0.0 mm 0.00 in0.0 mm
06:23 AM 87.1°F30.6°C 47.0°F8.3°C 25% 0.4 mph NE0.6 kmh NE 0.9 mph1.4 kmh 29.91 in1012.9 mb 0.00 in0.0 mm 0.00 in0.0 mm 0.00 in0.0 mm
06:13 AM 84.2°F29.0°C 49.4°F9.7°C 30% 1.3 mph SW2.1 kmh SW 2.3 mph3.7 kmh 29.91 in1012.9 mb 0.00 in0.0 mm 0.00 in0.0 mm 0.00 in0.0 mm
06:03 AM 81.3°F27.4°C 54.0°F12.2°C 39% 0.4 mph SW0.6 kmh SW 0.9 mph1.4 kmh 29.91 in1012.9 mb 0.00 in0.0 mm 0.00 in0.0 mm 0.00 in0.0 mm
05:53 AM 78.4°F25.8°C 52.1°F11.2°C 40% 0.9 mph SW1.4 kmh SW 1.9 mph3.1 kmh 29.91 in1012.9 mb 0.00 in0.0 mm 0.00 in0.0 mm 0.00 in0.0 mm
05:43 AM 76.8°F24.9°C 50.7°F10.4°C 40% 0.4 mph W0.6 kmh W 0.9 mph1.4 kmh 29.91 in1012.9 mb 0.00 in0.0 mm 0.00 in0.0 mm 0.00 in0.0 mm
05:33 AM 75.6°F24.2°C 49.5°F9.7°C 40% 0.9 mph S1.4 kmh S 1.3 mph2.1 kmh 29.91 in1012.9 mb 0.00 in0.0 mm 0.00 in0.0 mm 0.00 in0.0 mm
05:23 AM 73.9°F23.3°C 48.7°F9.3°C 41% 1.3 mph S2.1 kmh S 2.3 mph3.7 kmh 29.90 in1012.5 mb 0.00 in0.0 mm 0.00 in0.0 mm 0.00 in0.0 mm
05:13 AM 73.2°F22.9°C 48.7°F9.3°C 42% 1.3 mph NNE2.1 kmh NNE 2.3 mph3.7 kmh 29.90 in1012.5 mb 0.00 in0.0 mm 0.00 in0.0 mm 0.00 in0.0 mm
05:03 AM 74.3°F23.5°C 48.4°F9.1°C 40% 1.3 mph S2.1 kmh S 1.9 mph3.1 kmh 29.91 in1012.9 mb 0.00 in0.0 mm 0.00 in0.0 mm 0.00 in0.0 mm
04:53 AM 74.5°F23.6°C 47.2°F8.4°C 38% 1.9 mph W3.1 kmh W 3.2 mph5.1 kmh 29.91 in1012.9 mb 0.00 in0.0 mm 0.00 in0.0 mm 0.00 in0.0 mm
04:43 AM 74.5°F23.6°C 47.2°F8.4°C 38% 2.3 mph SW3.7 kmh SW 2.7 mph4.3 kmh 29.90 in1012.5 mb 0.00 in0.0 mm 0.00 in0.0 mm 0.00 in0.0 mm
04:32 AM 75.0°F23.9°C 47.7°F8.7°C 38% 1.3 mph SW2.1 kmh SW 1.9 mph3.1 kmh 29.90 in1012.5 mb 0.00 in0.0 mm 0.00 in0.0 mm 0.00 in0.0 mm
04:22 AM 75.4°F24.1°C 46.6°F8.1°C 36% 2.7 mph W4.3 kmh W 3.6 mph5.8 kmh 29.90 in1012.5 mb 0.00 in0.0 mm 0.00 in0.0 mm 0.00 in0.0 mm
04:12 AM 75.4°F24.1°C 47.3°F8.5°C 37% 2.3 mph S3.7 kmh S 2.7 mph4.3 kmh 29.90 in1012.5 mb 0.00 in0.0 mm 0.00 in0.0 mm 0.00 in0.0 mm
04:02 AM 75.6°F24.2°C 47.4°F8.6°C 37% 3.2 mph SW5.1 kmh SW 4.2 mph6.8 kmh 29.90 in1012.5 mb 0.00 in0.0 mm 0.00 in0.0 mm 0.00 in0.0 mm
03:52 AM 75.7°F24.3°C 46.9°F8.3°C 36% 2.7 mph W4.3 kmh W 4.2 mph6.8 kmh 29.90 in1012.5 mb 0.00 in0.0 mm 0.00 in0.0 mm 0.00 in0.0 mm
03:42 AM 75.7°F24.3°C 46.9°F8.3°C 36% 2.3 mph W3.7 kmh W 3.6 mph5.8 kmh 29.90 in1012.5 mb 0.00 in0.0 mm 0.00 in0.0 mm 0.00 in0.0 mm
03:32 AM 75.7°F24.3°C 46.1°F7.8°C 35% 2.3 mph E3.7 kmh E 3.2 mph5.1 kmh 29.90 in1012.5 mb 0.00 in0.0 mm 0.00 in0.0 mm 0.00 in0.0 mm
03:22 AM 75.4°F24.1°C 46.6°F8.1°C 36% 2.3 mph SW3.7 kmh SW 3.2 mph5.1 kmh 29.90 in1012.5 mb 0.00 in0.0 mm 0.00 in0.0 mm 0.00 in0.0 mm
03:12 AM 74.7°F23.7°C 48.0°F8.9°C 39% 1.9 mph S3.1 kmh S 3.2 mph5.1 kmh 29.90 in1012.5 mb 0.00 in0.0 mm 0.00 in0.0 mm 0.00 in0.0 mm
03:02 AM 74.8°F23.8°C 48.9°F9.4°C 40% 1.9 mph SW3.1 kmh SW 3.2 mph5.1 kmh 29.90 in1012.5 mb 0.00 in0.0 mm 0.00 in0.0 mm 0.00 in0.0 mm
02:52 AM 74.7°F23.7°C 49.4°F9.7°C 41% 2.7 mph S4.3 kmh S 3.6 mph5.8 kmh 29.91 in1012.9 mb 0.00 in0.0 mm 0.00 in0.0 mm 0.00 in0.0 mm
02:42 AM 74.7°F23.7°C 50.0°F10.0°C 42% 3.2 mph SW5.1 kmh SW 4.6 mph7.4 kmh 29.90 in1012.5 mb 0.00 in0.0 mm 0.00 in0.0 mm 0.00 in0.0 mm
02:32 AM 74.8°F23.8°C 50.2°F10.1°C 42% 1.3 mph WSW2.1 kmh WSW 2.3 mph3.7 kmh 29.91 in1012.9 mb 0.00 in0.0 mm 0.00 in0.0 mm 0.00 in0.0 mm
02:22 AM 74.5°F23.6°C 49.9°F9.9°C 42% 1.9 mph WSW3.1 kmh WSW 2.7 mph4.3 kmh 29.91 in1012.9 mb 0.00 in0.0 mm 0.00 in0.0 mm 0.00 in0.0 mm
02:12 AM 75.4°F24.1°C 50.7°F10.4°C 42% 2.3 mph S3.7 kmh S 3.2 mph5.1 kmh 29.91 in1012.9 mb 0.00 in0.0 mm 0.00 in0.0 mm 0.00 in0.0 mm
02:02 AM 75.6°F24.2°C 50.2°F10.1°C 41% 2.3 mph 3.7 kmh 2.7 mph4.3 kmh 29.91 in1012.9 mb 0.00 in0.0 mm 0.00 in0.0 mm 0.00 in0.0 mm
01:52 AM 75.6°F24.2°C 49.5°F9.7°C 40% 2.3 mph W3.7 kmh W 3.2 mph5.1 kmh 29.91 in1012.9 mb 0.00 in0.0 mm 0.00 in0.0 mm 0.00 in0.0 mm
01:42 AM 75.6°F24.2°C 50.2°F10.1°C 41% 4.2 mph WSW6.8 kmh WSW 5.5 mph8.9 kmh 29.91 in1012.9 mb 0.00 in0.0 mm 0.00 in0.0 mm 0.00 in0.0 mm
01:32 AM 75.7°F24.3°C 51.0°F10.6°C 42% 2.7 mph S4.3 kmh S 3.6 mph5.8 kmh 29.91 in1012.9 mb 0.00 in0.0 mm 0.00 in0.0 mm 0.00 in0.0 mm
01:22 AM 75.7°F24.3°C 52.9°F11.6°C 45% 2.7 mph S4.3 kmh S 4.6 mph7.4 kmh 29.91 in1012.9 mb 0.00 in0.0 mm 0.00 in0.0 mm 0.00 in0.0 mm
01:12 AM 75.9°F24.4°C 53.6°F12.0°C 46% 2.7 mph SW4.3 kmh SW 3.6 mph5.8 kmh 29.91 in1012.9 mb 0.00 in0.0 mm 0.00 in0.0 mm 0.00 in0.0 mm
01:02 AM 75.9°F24.4°C 55.4°F13.0°C 49% 2.3 mph SSW3.7 kmh SSW 2.7 mph4.3 kmh 29.91 in1012.9 mb 0.00 in0.0 mm 0.00 in0.0 mm 0.00 in0.0 mm
12:52 AM 76.1°F24.5°C 56.1°F13.4°C 50% 3.2 mph SW5.1 kmh SW 4.6 mph7.4 kmh 29.91 in1012.9 mb 0.00 in0.0 mm 0.00 in0.0 mm 0.00 in0.0 mm
12:42 AM 75.6°F24.2°C 56.7°F13.7°C 52% 2.3 mph E3.7 kmh E 3.2 mph5.1 kmh 29.91 in1012.9 mb 0.00 in0.0 mm 0.00 in0.0 mm 0.00 in0.0 mm
12:32 AM 75.4°F24.1°C 58.1°F14.5°C 55% 2.3 mph S3.7 kmh S 3.2 mph5.1 kmh 29.91 in1012.9 mb 0.00 in0.0 mm 0.00 in0.0 mm 0.00 in0.0 mm
12:22 AM 76.6°F24.8°C 58.2°F14.6°C 53% 1.9 mph SW3.1 kmh SW 2.3 mph3.7 kmh 29.92 in1013.2 mb 0.00 in0.0 mm 0.00 in0.0 mm 0.00 in0.0 mm
12:12 AM 78.6°F25.9°C 59.0°F15.0°C 51% 1.9 mph S3.1 kmh S 2.7 mph4.3 kmh 29.92 in1013.2 mb 0.00 in0.0 mm 0.00 in0.0 mm 0.00 in0.0 mm
12:02 AM 80.2°F26.8°C 57.6°F14.2°C 46% 1.9 mph SW3.1 kmh SW 2.7 mph4.3 kmh 29.92 in1013.2 mb 0.00 in0.0 mm 0.00 in0.0 mm 0.00 in0.0 mm